Haltom City, Texas
Current Conditions -  °F | °C
As of 5:53 AM on Tuesday 27 Jan 2015 (Local Time) from KFTW Reporting Station
Clear Clear  
Wind Chill: 50°   Ceiling: Unl
Heat Index: 50°   Visibility: 10mi
Dew Point: 37°   Wind: 6mph
Humidity: 61%   Direction: 280°W
Pressure: 30.1"   Gusts: NA
Location:  32.81°N, 97.27°W
Report Text: KFTW 271153Z 28005KT 10SM CLR 10/03 A3010 RMK AO2 SLP189 T01000028 10144 20100 53004
Loading
Personal Weather Stations






























Interactive Weather Map New forecast layout! Learn more

10-Day Weather Forecast

Advertisements
Track Severe Weather on mobile